createdAt,value
2023-04-19T00:00:08.692Z,10.10
2023-04-19T00:02:38.274Z,12.00
2023-04-19T00:05:07.381Z,12.87
2023-04-19T00:07:35.612Z,12.40
2023-04-19T00:10:04.405Z,12.33
2023-04-19T00:12:32.511Z,13.93
2023-04-19T00:15:00.436Z,10.43
2023-04-19T00:17:29.301Z,12.70
2023-04-19T00:19:59.073Z,12.10
2023-04-19T00:22:27.532Z,12.60
2023-04-19T00:24:55.458Z,12.83
2023-04-19T00:27:23.394Z,12.27
2023-04-19T00:29:51.447Z,10.60
2023-04-19T00:32:19.499Z,11.93
2023-04-19T00:34:47.464Z,11.50
2023-04-19T00:37:16.991Z,11.13
2023-04-19T00:39:45.285Z,12.17
2023-04-19T00:42:13.133Z,14.43
2023-04-19T00:44:41.269Z,12.53
2023-04-19T00:47:09.658Z,12.10
2023-04-19T00:49:38.070Z,9.40
2023-04-19T00:52:06.911Z,12.33
2023-04-19T00:54:36.637Z,11.03
2023-04-19T00:57:04.595Z,13.40
2023-04-19T00:59:32.809Z,12.30
2023-04-19T01:02:00.832Z,16.27
2023-04-19T01:04:29.311Z,16.10
2023-04-19T01:06:57.376Z,13.63
2023-04-19T01:09:25.272Z,16.77
2023-04-19T01:11:54.619Z,14.70
2023-04-19T01:14:22.477Z,15.10
2023-04-19T01:16:50.750Z,11.57
2023-04-19T01:19:18.708Z,12.57
2023-04-19T01:21:46.666Z,12.77
2023-04-19T01:24:16.382Z,13.00
2023-04-19T01:26:44.597Z,14.77
2023-04-19T01:29:12.546Z,17.27
2023-04-19T01:31:40.508Z,13.33
2023-04-19T01:34:08.669Z,16.80
2023-04-19T01:36:36.500Z,11.27
2023-04-19T01:39:04.577Z,13.13
2023-04-19T01:41:33.794Z,14.97
2023-04-19T01:44:01.947Z,15.57
2023-04-19T01:46:30.216Z,13.97
2023-04-19T01:48:58.084Z,16.50
2023-04-19T01:51:26.315Z,15.00
2023-04-19T01:53:54.771Z,13.30
2023-04-19T01:56:22.808Z,12.77
2023-04-19T01:58:52.241Z,16.40
2023-04-19T02:01:20.287Z,21.00
2023-04-19T02:03:48.645Z,15.20
2023-04-19T02:06:16.832Z,17.20
2023-04-19T02:08:44.711Z,20.17
2023-04-19T02:11:14.779Z,17.40
2023-04-19T02:13:42.853Z,20.77
2023-04-19T02:16:12.694Z,16.17
2023-04-19T02:18:41.633Z,19.67
2023-04-19T02:21:11.180Z,19.23
2023-04-19T02:23:39.198Z,19.83
2023-04-19T02:26:07.367Z,19.47
2023-04-19T02:28:35.348Z,18.77
2023-04-19T02:31:06.833Z,25.50
2023-04-19T02:33:36.543Z,21.97
2023-04-19T02:36:04.690Z,19.70
2023-04-19T02:38:32.727Z,22.23
2023-04-19T02:41:01.620Z,18.50
2023-04-19T02:43:29.666Z,19.70
2023-04-19T02:45:57.671Z,21.30
2023-04-19T02:48:25.561Z,21.97
2023-04-19T02:50:55.063Z,26.03
2023-04-19T02:53:22.985Z,19.70
2023-04-19T02:55:51.173Z,28.70
2023-04-19T02:58:19.145Z,25.77
2023-04-19T03:00:47.222Z,23.67
2023-04-19T03:03:15.233Z,25.43
2023-04-19T03:05:43.205Z,26.23
2023-04-19T03:08:12.822Z,23.60
2023-04-19T03:10:40.776Z,24.67
2023-04-19T03:13:09.321Z,23.20
2023-04-19T03:15:37.527Z,23.30
2023-04-19T03:18:05.543Z,24.70
2023-04-19T03:20:34.376Z,26.87
2023-04-19T03:23:02.644Z,26.67
2023-04-19T03:25:32.092Z,29.40
2023-04-19T03:28:00.282Z,25.17
2023-04-19T03:30:28.211Z,31.07
2023-04-19T03:32:56.312Z,29.33
2023-04-19T03:35:26.162Z,26.70
2023-04-19T03:37:54.310Z,33.83
2023-04-19T03:40:22.588Z,26.43
2023-04-19T03:42:52.006Z,26.63
2023-04-19T03:45:20.296Z,29.10
2023-04-19T03:47:48.485Z,31.80
2023-04-19T03:50:16.425Z,27.53
2023-04-19T03:52:44.329Z,27.40
2023-04-19T03:55:14.169Z,27.93
2023-04-19T03:57:42.100Z,27.03
2023-04-19T04:00:12.833Z,30.07
2023-04-19T04:02:41.280Z,30.70
2023-04-19T04:05:09.782Z,30.87
2023-04-19T04:07:37.808Z,25.80
2023-04-19T04:10:06.842Z,30.67
2023-04-19T04:12:34.907Z,31.30
2023-04-19T04:15:02.988Z,31.43
2023-04-19T04:17:32.437Z,26.63
2023-04-19T04:20:01.379Z,29.30
2023-04-19T04:22:29.295Z,26.90
2023-04-19T04:24:58.084Z,28.80
2023-04-19T04:27:26.404Z,28.33
2023-04-19T04:29:54.602Z,30.53
2023-04-19T04:32:23.689Z,28.33
2023-04-19T04:34:53.186Z,28.17
2023-04-19T04:37:21.070Z,29.40
2023-04-19T04:39:49.093Z,28.30
2023-04-19T04:42:18.015Z,30.03
2023-04-19T04:44:47.300Z,30.00
2023-04-19T04:47:15.492Z,29.80
2023-04-19T04:49:43.413Z,30.57
2023-04-19T04:52:13.080Z,33.33
2023-04-19T04:54:41.103Z,28.07
2023-04-19T04:57:10.080Z,28.93
2023-04-19T04:59:38.219Z,31.67
2023-04-19T05:02:06.149Z,27.77
2023-04-19T05:04:34.185Z,31.00
2023-04-19T05:07:02.309Z,26.93
2023-04-19T05:09:31.531Z,28.67
2023-04-19T05:11:59.659Z,26.80
2023-04-19T05:14:27.669Z,29.03
2023-04-19T05:16:55.557Z,28.60
2023-04-19T05:19:23.653Z,30.10
2023-04-19T05:21:51.608Z,27.37
2023-04-19T05:24:19.691Z,29.87
2023-04-19T05:26:48.971Z,28.50
2023-04-19T05:29:17.894Z,28.17
2023-04-19T05:31:46.237Z,27.40
2023-04-19T05:34:14.639Z,25.83
2023-04-19T05:36:42.760Z,29.07
2023-04-19T05:39:10.841Z,26.53
2023-04-19T05:41:38.790Z,25.90
2023-04-19T05:44:08.278Z,26.60
2023-04-19T05:46:36.690Z,36.23
2023-04-19T05:49:04.709Z,28.40
2023-04-19T05:51:32.838Z,24.63
2023-04-19T05:54:01.712Z,27.77
2023-04-19T05:56:29.997Z,28.10
2023-04-19T05:58:58.585Z,26.67
2023-04-19T06:01:28.176Z,25.10
2023-04-19T06:03:56.436Z,25.87
2023-04-19T06:06:24.840Z,25.00
2023-04-19T06:08:54.801Z,22.77
2023-04-19T06:11:29.208Z,24.90
2023-04-19T06:14:02.948Z,27.27
2023-04-19T06:16:32.491Z,27.17
2023-04-19T06:19:00.603Z,28.20
2023-04-19T06:21:31.354Z,27.20
2023-04-19T06:23:59.272Z,26.03
2023-04-19T06:26:27.735Z,24.37
2023-04-19T06:28:55.817Z,25.37
2023-04-19T06:31:24.115Z,27.03
2023-04-19T06:33:53.438Z,28.90
2023-04-19T06:36:21.473Z,25.83
2023-04-19T06:38:50.396Z,27.33
2023-04-19T06:41:18.556Z,25.00
2023-04-19T06:43:46.458Z,26.53
2023-04-19T06:46:15.983Z,28.37
2023-04-19T06:48:44.027Z,25.50
2023-04-19T06:51:13.294Z,26.07
2023-04-19T06:53:41.586Z,25.53
2023-04-19T06:56:10.231Z,28.93
2023-04-19T06:58:38.428Z,26.23
2023-04-19T07:01:06.553Z,21.93
2023-04-19T07:03:34.982Z,25.47
2023-04-19T07:06:03.116Z,23.50
2023-04-19T07:08:48.243Z,24.83
2023-04-19T07:11:18.067Z,24.37
2023-04-19T07:13:46.894Z,22.70
2023-04-19T07:16:14.945Z,21.70
2023-04-19T07:18:44.133Z,25.30
2023-04-19T07:21:12.085Z,26.53
2023-04-19T07:23:41.417Z,21.07
2023-04-19T07:26:09.680Z,25.03
2023-04-19T07:28:37.681Z,21.53
2023-04-19T07:31:06.133Z,20.70
2023-04-19T07:33:34.319Z,24.37
2023-04-19T07:36:02.537Z,19.93
2023-04-19T07:38:30.521Z,24.80
2023-04-19T07:41:00.056Z,23.17
2023-04-19T07:43:28.166Z,25.10
2023-04-19T07:45:56.141Z,24.40
2023-04-19T07:48:24.257Z,23.80
2023-04-19T07:50:52.222Z,23.80
2023-04-19T07:53:20.708Z,24.57
2023-04-19T07:55:48.650Z,24.70
2023-04-19T07:58:18.777Z,23.47
2023-04-19T08:00:46.707Z,18.80
2023-04-19T08:03:15.111Z,17.93
2023-04-19T08:05:43.456Z,17.53
2023-04-19T08:08:11.405Z,17.87
2023-04-19T08:10:39.373Z,20.30
2023-04-19T08:13:07.429Z,21.13
2023-04-19T08:16:18.111Z,19.27
2023-04-19T08:18:25.990Z,20.67
2023-04-19T08:20:54.183Z,22.47
2023-04-19T08:23:26.030Z,21.63
2023-04-19T08:26:00.035Z,21.07
2023-04-19T08:28:28.087Z,21.07
2023-04-19T08:31:00.820Z,16.67
2023-04-19T08:33:30.798Z,18.00
2023-04-19T08:35:58.753Z,24.20
2023-04-19T08:38:27.099Z,23.37
2023-04-19T08:40:56.199Z,25.00
2023-04-19T08:43:28.670Z,18.47
2023-04-19T08:45:58.884Z,20.58
2023-04-19T08:48:29.854Z,18.90
2023-04-19T08:51:05.659Z,20.17
2023-04-19T08:53:35.689Z,21.53
2023-04-19T08:56:15.113Z,15.90
2023-04-19T09:04:00.218Z,17.90
2023-04-19T09:06:37.489Z,24.40
2023-04-19T09:11:52.972Z,19.55
2023-04-19T09:14:22.332Z,23.50
2023-04-19T09:16:52.653Z,27.58
2023-04-19T09:19:24.810Z,35.10
2023-04-19T09:21:54.992Z,19.50
2023-04-19T09:27:12.910Z,17.70
2023-04-19T09:29:40.890Z,18.00
2023-04-19T09:32:10.410Z,22.40
2023-04-19T09:34:53.036Z,22.20
2023-04-19T09:39:56.166Z,14.90
2023-04-19T09:42:47.446Z,22.57
2023-04-19T09:45:29.257Z,19.47
2023-04-19T09:48:08.490Z,19.53
2023-04-19T09:50:46.278Z,18.67
2023-04-19T09:53:25.112Z,18.13
2023-04-19T09:56:01.633Z,15.70
2023-04-19T10:01:13.367Z,19.40
2023-04-19T10:03:46.906Z,17.77
2023-04-19T10:06:39.968Z,23.47
2023-04-19T10:09:06.487Z,20.23
2023-04-19T10:11:38.765Z,24.33
2023-04-19T10:14:08.594Z,19.80
2023-04-19T10:16:38.116Z,23.00
2023-04-19T10:19:10.279Z,15.03
2023-04-19T10:21:39.925Z,18.10
2023-04-19T10:24:09.457Z,18.27
2023-04-19T10:27:07.160Z,16.23
2023-04-19T10:29:57.218Z,15.37
2023-04-19T10:32:27.711Z,15.17
2023-04-19T10:35:02.107Z,18.70
2023-04-19T10:37:30.201Z,17.20
2023-04-19T10:39:58.328Z,15.03
2023-04-19T10:42:26.368Z,17.40
2023-04-19T10:45:34.951Z,21.43
2023-04-19T10:48:04.743Z,22.70
2023-04-19T10:50:59.591Z,21.27
2023-04-19T10:53:53.498Z,19.37
2023-04-19T10:56:23.611Z,18.00
2023-04-19T10:59:22.428Z,19.65
2023-04-19T11:01:56.199Z,17.80
2023-04-19T11:04:47.185Z,12.73
2023-04-19T11:07:18.262Z,16.53
2023-04-19T11:09:47.330Z,15.60
2023-04-19T11:12:16.888Z,17.63
2023-04-19T11:14:46.104Z,13.27
2023-04-19T11:17:19.051Z,20.70
2023-04-19T11:19:54.215Z,23.87
2023-04-19T11:22:31.782Z,17.53
2023-04-19T11:25:06.750Z,20.47
2023-04-19T11:27:40.727Z,18.80
2023-04-19T11:30:11.383Z,15.60
2023-04-19T11:32:46.464Z,19.00
2023-04-19T11:35:14.767Z,20.27
2023-04-19T11:37:44.070Z,19.07
2023-04-19T11:40:16.918Z,19.30
2023-04-19T11:42:45.249Z,18.10
2023-04-19T11:45:30.501Z,18.00
2023-04-19T11:48:01.173Z,22.77
2023-04-19T11:50:34.552Z,21.77
2023-04-19T11:53:12.637Z,19.00
2023-04-19T11:55:43.116Z,23.97
2023-04-19T11:58:23.644Z,18.20
2023-04-19T12:00:51.953Z,23.50
2023-04-19T12:03:25.686Z,18.80
2023-04-19T12:05:56.275Z,21.00
2023-04-19T12:08:37.110Z,29.67
2023-04-19T12:11:06.697Z,21.63
2023-04-19T12:13:36.380Z,20.63
2023-04-19T12:16:04.821Z,24.40
2023-04-19T12:18:49.162Z,23.57
2023-04-19T12:21:27.592Z,26.30
2023-04-19T12:23:58.567Z,25.20
2023-04-19T12:26:28.441Z,28.50
2023-04-19T12:28:56.858Z,26.03
2023-04-19T12:31:24.948Z,27.00
2023-04-19T12:33:53.153Z,31.73
2023-04-19T12:36:21.552Z,24.77
2023-04-19T12:38:49.569Z,25.40
2023-04-19T12:41:19.463Z,22.60
2023-04-19T12:43:47.418Z,22.70
2023-04-19T12:46:15.576Z,25.83
2023-04-19T12:48:43.580Z,25.23
2023-04-19T12:51:11.611Z,26.43
2023-04-19T12:53:40.005Z,17.77
2023-04-19T12:56:08.003Z,20.13
2023-04-19T12:58:37.458Z,22.63
2023-04-19T13:01:06.162Z,18.80
2023-04-19T13:03:36.850Z,16.40
2023-04-19T13:06:05.452Z,14.43
2023-04-19T13:08:44.884Z,15.67
2023-04-19T13:11:15.762Z,16.13
2023-04-19T13:13:45.266Z,14.40
2023-04-19T13:16:13.489Z,19.37
2023-04-19T13:18:41.437Z,13.63
2023-04-19T13:21:09.364Z,16.40
2023-04-19T13:23:37.396Z,15.77
2023-04-19T13:26:05.432Z,13.20
2023-04-19T13:28:35.782Z,13.00
2023-04-19T13:31:05.926Z,18.87
2023-04-19T13:33:34.127Z,14.70
2023-04-19T13:36:02.116Z,12.83
2023-04-19T13:38:30.243Z,14.83
2023-04-19T13:41:00.138Z,15.40
2023-04-19T13:43:28.148Z,17.83
2023-04-19T13:45:56.293Z,11.73
2023-04-19T13:48:27.898Z,9.70
2023-04-19T13:50:57.153Z,9.37
2023-04-19T13:53:25.871Z,9.77
2023-04-19T13:55:53.947Z,7.10
2023-04-19T13:58:22.173Z,8.37
2023-04-19T14:00:50.075Z,8.07
2023-04-19T14:03:18.436Z,9.20
2023-04-19T14:05:48.066Z,10.17
2023-04-19T14:08:15.945Z,7.03
2023-04-19T14:10:43.885Z,6.33
2023-04-19T14:13:12.042Z,4.83
2023-04-19T14:15:40.133Z,3.47
2023-04-19T14:18:08.070Z,3.73
2023-04-19T14:20:36.359Z,20.87
2023-04-19T14:23:05.787Z,6.03
2023-04-19T14:25:34.115Z,4.40
2023-04-19T14:28:02.042Z,3.73
2023-04-19T14:30:31.198Z,4.20
2023-04-19T14:32:59.397Z,3.33
2023-04-19T14:35:27.466Z,4.20
2023-04-19T14:37:55.418Z,4.80
2023-04-19T14:40:25.144Z,7.37
2023-04-19T14:42:53.299Z,8.70
2023-04-19T14:45:21.766Z,8.67
2023-04-19T14:47:49.845Z,11.17
2023-04-19T14:50:17.853Z,8.07
2023-04-19T14:52:45.967Z,9.47
2023-04-19T14:55:14.051Z,7.87
2023-04-19T14:57:43.512Z,8.10
2023-04-19T15:00:12.584Z,9.70
2023-04-19T15:02:41.076Z,6.73
2023-04-19T15:05:10.191Z,7.70
2023-04-19T15:07:39.549Z,7.77
2023-04-19T15:10:08.762Z,10.47
2023-04-19T15:12:36.837Z,7.53
2023-04-19T15:15:07.098Z,7.20
2023-04-19T15:17:35.203Z,10.23
2023-04-19T15:20:03.388Z,8.17
2023-04-19T15:22:31.460Z,10.13
2023-04-19T15:25:01.438Z,7.67
2023-04-19T15:27:29.569Z,9.77
2023-04-19T15:29:57.457Z,10.67
2023-04-19T15:32:27.796Z,10.30
2023-04-19T15:34:55.979Z,11.20
2023-04-19T15:37:23.836Z,12.60
2023-04-19T15:39:51.912Z,11.10
2023-04-19T15:42:19.828Z,9.30
2023-04-19T15:44:47.920Z,8.43
2023-04-19T15:47:15.835Z,10.23
2023-04-19T15:49:47.460Z,9.13
2023-04-19T15:52:15.693Z,12.33
2023-04-19T15:54:43.584Z,8.90
2023-04-19T15:57:11.773Z,12.53
2023-04-19T15:59:39.834Z,11.23
2023-04-19T16:02:08.142Z,11.27
2023-04-19T16:07:06.873Z,13.03
2023-04-19T16:09:34.958Z,9.37
2023-04-19T16:12:02.840Z,9.85
2023-04-19T16:14:30.915Z,9.80
2023-04-19T16:16:59.524Z,16.10
2023-04-19T16:19:27.604Z,7.00
2023-04-19T16:21:55.751Z,7.13
2023-04-19T16:24:24.985Z,10.50
2023-04-19T16:26:53.027Z,10.70
2023-04-19T16:29:21.093Z,10.20
2023-04-19T16:31:51.762Z,11.30
2023-04-19T16:34:20.240Z,8.33
2023-04-19T16:36:48.438Z,10.33
2023-04-19T16:39:16.748Z,11.00
2023-04-19T16:41:52.196Z,9.90
2023-04-19T16:44:20.297Z,7.27
2023-04-19T16:46:48.332Z,9.97
2023-04-19T16:49:16.388Z,8.13
2023-04-19T16:51:44.438Z,7.40
2023-04-19T16:54:12.476Z,8.27
2023-04-19T16:56:40.452Z,7.83
2023-04-19T16:59:09.857Z,10.80
2023-04-19T17:01:37.963Z,10.47
2023-04-19T17:04:06.374Z,7.53
2023-04-19T17:06:34.672Z,7.50
2023-04-19T17:09:05.439Z,7.37
2023-04-19T17:11:33.486Z,7.00
2023-04-19T17:14:02.036Z,7.10
2023-04-19T17:16:31.522Z,6.67
2023-04-19T17:18:59.440Z,6.57
2023-04-19T17:21:27.700Z,9.53
2023-04-19T17:23:55.633Z,5.63
2023-04-19T17:26:24.209Z,6.63
2023-04-19T17:28:52.474Z,7.73
2023-04-19T17:31:20.499Z,6.10
2023-04-19T17:33:49.841Z,8.53
2023-04-19T17:36:18.714Z,7.35
2023-04-19T17:38:46.658Z,7.67
2023-04-19T17:41:17.055Z,5.60
2023-04-19T17:43:45.685Z,6.73
2023-04-19T17:46:14.320Z,7.97
2023-04-19T17:48:42.423Z,7.20
2023-04-19T17:51:11.855Z,6.07
2023-04-19T17:53:39.748Z,6.70
2023-04-19T17:56:07.746Z,7.10
2023-04-19T17:58:36.677Z,10.57
2023-04-19T18:01:04.731Z,9.43
2023-04-19T18:03:32.880Z,7.17
2023-04-19T18:06:00.979Z,5.67
2023-04-19T18:08:30.505Z,8.73
2023-04-19T18:10:58.389Z,6.27
2023-04-19T18:13:26.717Z,6.87
2023-04-19T18:15:54.893Z,8.30
2023-04-19T18:18:23.225Z,6.03
2023-04-19T18:20:51.315Z,6.20
2023-04-19T18:23:19.186Z,6.50
2023-04-19T18:25:55.487Z,7.80
2023-04-19T18:28:23.575Z,8.60
2023-04-19T18:30:51.640Z,10.53
2023-04-19T18:33:19.761Z,5.30
2023-04-19T18:35:47.943Z,6.63
2023-04-19T18:38:15.865Z,6.53
2023-04-19T18:40:43.790Z,8.23
2023-04-19T18:43:13.387Z,7.43
2023-04-19T18:45:41.542Z,7.70
2023-04-19T18:48:09.999Z,5.97
2023-04-19T18:50:38.205Z,6.40
2023-04-19T18:53:06.138Z,7.83
2023-04-19T18:55:34.287Z,7.30
2023-04-19T18:58:02.277Z,7.33
2023-04-19T19:00:31.621Z,6.90
2023-04-19T19:03:01.001Z,7.33
2023-04-19T19:05:30.518Z,8.10
2023-04-19T19:07:58.724Z,5.50
2023-04-19T19:13:02.367Z,8.47
2023-04-19T19:15:32.022Z,7.37
2023-04-19T19:18:00.223Z,9.07
2023-04-19T19:20:28.354Z,8.10
2023-04-19T19:22:56.598Z,7.55
2023-04-19T19:25:24.947Z,7.43
2023-04-19T19:28:06.233Z,6.40
2023-04-19T19:30:40.136Z,5.63
2023-04-19T19:33:08.235Z,9.27
2023-04-19T19:35:36.515Z,6.23
2023-04-19T19:38:04.668Z,7.80
2023-04-19T19:40:33.159Z,6.83
2023-04-19T19:43:01.435Z,5.80
2023-04-19T19:45:29.691Z,5.97
2023-04-19T19:48:00.615Z,6.65
2023-04-19T19:53:01.562Z,5.67
2023-04-19T19:55:29.974Z,6.20
2023-04-19T20:03:02.320Z,6.03
2023-04-19T20:05:30.938Z,8.67
2023-04-19T20:08:11.619Z,5.50
2023-04-19T20:10:41.158Z,8.43
2023-04-19T20:13:09.500Z,6.13
2023-04-19T20:15:38.390Z,5.20
2023-04-19T20:18:08.441Z,6.30
2023-04-19T20:20:37.384Z,6.60
2023-04-19T20:23:05.923Z,7.10
2023-04-19T20:25:34.038Z,5.70
2023-04-19T20:28:03.233Z,6.37
2023-04-19T20:30:31.400Z,7.77
2023-04-19T20:32:59.455Z,6.13
2023-04-19T20:35:29.427Z,6.70
2023-04-19T20:38:02.389Z,6.27
2023-04-19T20:40:32.172Z,5.90
2023-04-19T20:43:00.214Z,6.00
2023-04-19T20:45:28.633Z,9.07
2023-04-19T20:47:58.361Z,8.87
2023-04-19T20:50:27.875Z,8.13
2023-04-19T20:52:56.784Z,6.50
2023-04-19T20:55:25.038Z,6.70
2023-04-19T20:57:53.148Z,7.53
2023-04-19T21:00:21.566Z,8.93
2023-04-19T21:02:50.305Z,9.13
2023-04-19T21:05:19.329Z,9.57
2023-04-19T21:07:48.824Z,8.48
2023-04-19T21:10:17.717Z,7.10
2023-04-19T21:12:46.072Z,8.40
2023-04-19T21:15:14.142Z,8.70
2023-04-19T21:17:43.938Z,8.43
2023-04-19T21:20:18.400Z,7.30
2023-04-19T21:22:48.638Z,10.40
2023-04-19T21:25:17.269Z,12.80
2023-04-19T21:27:45.446Z,9.53
2023-04-19T21:30:14.347Z,7.37
2023-04-19T21:32:42.328Z,10.37
2023-04-19T21:35:11.002Z,7.53
2023-04-19T21:37:38.922Z,8.90
2023-04-19T21:40:09.471Z,10.80
2023-04-19T21:42:37.674Z,10.13
2023-04-19T21:45:06.495Z,10.87
2023-04-19T21:47:34.470Z,10.10
2023-04-19T21:50:02.775Z,10.70
2023-04-19T21:52:30.711Z,11.37
2023-04-19T21:54:58.615Z,7.30
2023-04-19T21:57:28.268Z,10.17
2023-04-19T21:59:56.228Z,13.50
2023-04-19T22:02:24.807Z,10.87
2023-04-19T22:04:54.011Z,10.67
2023-04-19T22:07:24.495Z,12.13
2023-04-19T22:09:52.395Z,10.60
2023-04-19T22:12:20.864Z,10.27
2023-04-19T22:14:50.686Z,12.03
2023-04-19T22:17:19.476Z,12.30
2023-04-19T22:19:47.773Z,11.63
2023-04-19T22:22:16.673Z,13.07
2023-04-19T22:24:56.687Z,11.00
2023-04-19T22:27:26.099Z,10.07
2023-04-19T22:29:55.526Z,7.13
2023-04-19T22:32:23.738Z,10.63
2023-04-19T22:34:52.063Z,11.07
2023-04-19T22:37:20.130Z,11.47
2023-04-19T22:39:48.230Z,11.63
2023-04-19T22:42:16.102Z,11.70
2023-04-19T22:44:44.132Z,12.50
2023-04-19T22:47:14.332Z,11.53
2023-04-19T22:49:43.478Z,12.60
2023-04-19T22:52:11.932Z,15.40
2023-04-19T22:54:39.971Z,14.00
2023-04-19T22:57:07.884Z,13.33
2023-04-19T22:59:35.942Z,15.93
2023-04-19T23:02:04.377Z,15.83
2023-04-19T23:04:36.164Z,19.33
2023-04-19T23:07:04.342Z,12.80
2023-04-19T23:09:32.299Z,17.50
2023-04-19T23:12:00.734Z,16.50
2023-04-19T23:14:29.473Z,16.60
2023-04-19T23:16:58.413Z,13.90
2023-04-19T23:19:26.594Z,18.40
2023-04-19T23:21:55.865Z,17.07
2023-04-19T23:24:23.792Z,15.07
2023-04-19T23:26:52.370Z,17.33
2023-04-19T23:29:20.248Z,19.63
2023-04-19T23:31:48.371Z,20.63
2023-04-19T23:34:16.752Z,24.37
2023-04-19T23:36:44.672Z,20.13
2023-04-19T23:39:19.140Z,21.60
2023-04-19T23:41:47.534Z,20.30
2023-04-19T23:44:15.557Z,20.63
2023-04-19T23:46:43.465Z,24.10
2023-04-19T23:49:11.508Z,24.97
2023-04-19T23:51:39.565Z,23.87
2023-04-19T23:54:07.537Z,25.30
2023-04-19T23:56:36.928Z,24.00
2023-04-19T23:59:04.870Z,28.40
